Latest Weather Observations for Kilmore Gap

IDV60801

Issued at 7:02 pm EST Tuesday 7 July 2015 (issued every 30 minutes, with the page automatically refreshed every 10 minutes)

About weather observations | Map of weather stations | Latest weather observations for VIC | Other Formats
Station Details ID: 088162 Name: KILMORE GAP Lat: -37.38 Lon: 144.97 Height: 527.8 m
Data from the previous 72 hours. | See also: Recent months at Kilmore Gap
Date/Time
EST
Temp
°C
App
Temp
°C
Dew
Point
Rel
Hum
%
Delta-T
°C
Wind Press
QNH
hPa
Press
MSL
hPa
Rain
since 9 am
mm
Dir
 
Spd
km/h
Gust
km/h
Spd
kts
Gust
kts
07/07:00pm 7.5 5.1 6.8 95 0.3 SSE 9 13 5 7 1023.5 - 0.0
07/06:30pm 7.9 4.7 6.7 92 0.6 SSE 13 17 7 9 1023.2 - 0.0
07/06:00pm 8.0 4.7 6.5 90 0.7 SSE 13 15 7 8 1023.1 1024.2 0.0
07/05:30pm 8.2 4.9 6.5 89 0.8 SSE 13 15 7 8 1022.9 - 0.0
07/05:00pm 8.4 5.1 6.5 88 0.9 SE 13 15 7 8 1022.7 - 0.0
07/04:30pm 8.7 5.4 6.5 86 1.0 SSE 13 17 7 9 1022.6 - 0.0
07/04:00pm 8.9 5.2 6.3 84 1.2 SSE 15 17 8 9 1022.3 - 0.0
07/03:30pm 9.1 5.4 6.4 83 1.3 SE 15 17 8 9 1022.0 - 0.0
07/03:00pm 9.3 5.3 6.6 83 1.3 SE 17 19 9 10 1021.8 1022.9 0.0
07/02:30pm 9.6 6.3 6.3 80 1.6 SSE 13 19 7 10 1021.6 - 0.0
07/02:00pm 10.7 8.5 7.9 83 1.4 S 9 15 5 8 1021.5 - 0.0
07/01:30pm 9.7 7.6 6.6 81 1.5 SSE 7 15 4 8 1021.6 - 0.0
07/01:00pm 10.0 7.9 6.5 79 1.7 SSE 7 9 4 5 1021.7 - 0.0
07/12:30pm 9.8 8.0 7.1 83 1.3 SW 6 7 3 4 1021.8 - 0.0
07/12:12pm 9.5 8.5 7.3 86 1.1 WNW 2 7 1 4 1021.9 - 0.0
07/12:00pm 9.0 7.8 6.4 84 1.2 N 2 6 1 3 1021.9 1023.0 0.0
07/11:30am 8.6 7.4 6.6 87 1.0 N 2 7 1 4 1022.3 - 0.0
07/11:00am 8.7 6.8 6.5 86 1.0 N 6 9 3 5 1022.4 - 0.0
07/10:30am 9.4 7.9 6.7 83 1.3 NE 4 9 2 5 1022.4 - 0.0
07/10:00am 8.9 7.7 6.3 84 1.2 NE 2 7 1 4 1022.2 - 0.0
07/09:50am 8.5 6.9 6.3 86 1.0 NNE 4 7 2 4 1022.1 - 0.0
07/09:30am 8.0 6.1 6.5 90 0.7 N 6 7 3 4 1021.8 - 0.0
07/09:00am 6.6 3.8 5.2 91 0.6 N 9 9 5 5 1021.6 1022.7 2.6
07/08:30am 5.7 2.5 5.0 95 0.3 N 11 15 6 8 1021.3 - 2.6
07/08:00am 4.4 -0.1 4.1 98 0.1 N 17 20 9 11 1021.0 - 2.6
07/07:32am 4.3 -0.2 4.0 98 0.1 N 17 19 9 10 1020.7 - 2.6
07/07:30am 4.5 0.0 4.2 98 0.1 N 17 19 9 10 1020.7 - 2.6
07/07:00am 4.8 0.7 4.5 98 0.1 N 15 19 8 10 1020.3 - 2.6
07/06:30am 4.9 0.8 4.6 98 0.1 N 15 19 8 10 1020.1 - 2.6
07/06:00am 4.8 0.7 4.5 98 0.1 N 15 17 8 9 1019.6 1020.7 2.6
07/05:43am 4.8 0.7 4.5 98 0.1 N 15 17 8 9 1019.3 - 2.6
07/05:33am 4.7 0.6 4.4 98 0.1 N 15 17 8 9 1019.2 - 2.6
07/05:30am 4.7 0.6 4.4 98 0.1 N 15 17 8 9 1019.2 - 2.6
07/05:17am 4.6 0.5 4.3 98 0.1 N 15 19 8 10 1019.1 - 2.6
07/05:00am 4.8 0.4 4.5 98 0.1 N 17 19 9 10 1019.1 - 2.6
07/04:30am 4.4 0.3 4.1 98 0.1 N 15 17 8 9 1019.0 - 2.6
07/04:03am 4.3 -0.6 4.0 98 0.1 N 19 22 10 12 1018.7 - 2.6
07/04:00am 4.3 -0.2 4.0 98 0.1 N 17 20 9 11 1018.7 - 2.6
07/03:30am 4.4 -0.5 4.1 98 0.1 N 19 22 10 12 1018.7 - 2.6
07/03:07am 4.5 -0.6 4.2 98 0.1 N 20 22 11 12 1018.7 - 2.6
07/03:00am 4.5 -0.6 4.2 98 0.1 N 20 22 11 12 1018.8 1019.8 2.6
07/02:42am 4.4 -0.7 4.1 98 0.1 N 20 24 11 13 1018.7 - 2.6
07/02:30am 4.5 -0.4 4.2 98 0.1 N 19 26 10 14 1018.7 - 2.6
07/02:06am 4.3 -1.2 4.0 98 0.1 N 22 28 12 15 1018.2 - 2.6
07/02:00am 4.2 -1.3 3.9 98 0.1 N 22 26 12 14 1018.1 - 2.6
07/01:49am 4.0 -1.6 3.7 98 0.1 N 22 28 12 15 1018.1 - 2.6
07/01:30am 3.8 -2.2 3.5 98 0.1 N 24 28 13 15 1018.0 - 2.6
07/01:18am 3.9 -1.7 3.6 98 0.1 N 22 28 12 15 1017.9 - 2.6
07/01:00am 3.9 -1.7 3.6 98 0.1 N 22 26 12 14 1017.9 - 2.6
07/12:37am 4.0 -1.9 3.7 98 0.1 N 24 30 13 16 1017.9 - 2.6
07/12:30am 4.0 -1.9 3.7 98 0.1 N 24 30 13 16 1017.8 - 2.6
07/12:02am 4.3 -2.0 4.0 98 0.1 N 26 32 14 17 1017.8 - 2.4
07/12:00am 4.1 -2.2 4.0 99 0.0 N 26 32 14 17 1017.8 1018.9 2.4
 
Date/Time
EST
Temp
°C
App
Temp
°C
Dew
Point
Rel
Hum
%
Delta-T
°C
Wind Press
QNH
hPa
Press
MSL
hPa
Rain
since 9 am
mm
Dir
 
Spd
km/h
Gust
km/h
Spd
kts
Gust
kts
06/11:30pm 4.1 -2.2 3.8 98 0.1 N 26 32 14 17 1017.8 - 2.4
06/11:00pm 4.4 -1.8 4.1 98 0.1 N 26 32 14 17 1017.9 - 2.4
06/10:50pm 4.4 -2.2 4.3 99 0.0 N 28 33 15 18 1017.8 - 2.4
06/10:30pm 4.4 -2.2 4.3 99 0.0 N 28 35 15 19 1017.7 - 2.4
06/10:00pm 4.4 -2.6 4.3 99 0.0 N 30 33 16 18 1017.7 - 2.4
06/09:59pm 4.4 -2.6 4.3 99 0.0 N 30 33 16 18 1017.7 - 2.4
06/09:30pm 4.3 -2.7 4.2 99 0.0 N 30 35 16 19 1017.5 - 2.4
06/09:04pm 4.4 -2.2 4.3 99 0.0 N 28 33 15 18 1017.5 - 2.4
06/09:00pm 4.4 -2.2 4.3 99 0.0 N 28 33 15 18 1017.5 1018.6 2.4
06/08:30pm 4.3 -2.7 4.2 99 0.0 N 30 35 16 19 1017.2 - 2.4
06/08:00pm 4.3 -2.7 4.2 99 0.0 N 30 39 16 21 1017.0 - 2.4
06/07:30pm 4.4 -2.9 4.3 99 0.0 N 32 37 17 20 1016.9 - 2.0
06/07:00pm 4.3 -3.1 4.0 98 0.1 N 32 39 17 21 1016.7 - 2.0
06/06:30pm 4.3 -3.1 4.0 98 0.1 N 32 39 17 21 1016.4 - 2.0
06/06:14pm 4.4 -3.0 4.1 98 0.1 N 32 39 17 21 1016.3 - 2.0
06/06:00pm 4.4 -3.0 4.1 98 0.1 N 32 37 17 20 1016.0 1017.1 1.8
06/05:30pm 4.5 -2.5 4.2 98 0.1 N 30 35 16 19 1015.9 - 1.6
06/05:00pm 4.8 -2.1 4.4 97 0.2 N 30 37 16 20 1015.7 - 0.8
06/04:30pm 5.5 -1.6 3.8 89 0.7 N 30 37 16 20 1015.4 - 0.0
06/04:00pm 6.3 -0.8 3.5 82 1.2 N 30 35 16 19 1015.2 - 0.0
06/03:30pm 6.4 -0.3 3.7 83 1.2 N 28 35 15 19 1015.0 - 0.0
06/03:00pm 6.5 -0.6 3.7 82 1.2 N 30 39 16 21 1014.7 1015.7 0.0
06/02:30pm 6.5 -1.5 3.7 82 1.2 N 35 43 19 23 1014.4 - 0.0
06/02:00pm 6.5 -1.1 3.8 83 1.2 N 33 44 18 24 1014.6 - 0.0
06/01:30pm 5.9 -2.8 3.9 87 0.9 N 39 46 21 25 1014.7 - 0.0
06/01:00pm 5.6 -3.1 3.9 89 0.7 N 39 48 21 26 1014.9 - 0.0
06/12:30pm 5.7 -2.2 4.3 91 0.6 N 35 48 19 26 1015.2 - 0.0
06/12:00pm 5.0 -4.1 3.8 92 0.5 N 41 48 22 26 1015.3 1016.3 0.0
06/11:30am 4.6 -3.4 3.9 95 0.3 N 35 48 19 26 1016.0 - 0.0
06/11:00am 4.2 -4.6 3.8 97 0.2 N 39 46 21 25 1016.0 - 0.0
06/10:30am 3.9 -4.1 3.6 98 0.1 N 35 43 19 23 1016.2 - 0.0
06/10:00am 3.6 -4.9 3.3 98 0.1 N 37 44 20 24 1016.0 - 0.0
06/09:30am 3.1 -5.5 2.8 98 0.1 N 37 43 20 23 1016.0 - 0.0
06/09:10am 3.0 -5.6 2.7 98 0.1 N 37 46 20 25 1015.9 - 0.0
06/09:00am 2.9 -4.9 2.6 98 0.1 N 33 39 18 21 1016.0 1017.1 0.6
06/08:30am 2.8 -5.1 2.5 98 0.1 N 33 39 18 21 1016.0 - 0.2
06/08:27am 2.8 -5.1 2.5 98 0.1 N 33 39 18 21 1016.0 - 0.2
06/08:00am 2.7 -5.2 2.4 98 0.1 N 33 39 18 21 1015.9 - 0.0
06/07:30am 2.6 -5.1 2.3 98 0.1 N 32 39 17 21 1015.8 - 0.0
06/07:00am 2.6 -5.3 2.3 98 0.1 N 33 39 18 21 1015.7 - 0.0
06/06:30am 2.5 -5.8 2.2 98 0.1 N 35 43 19 23 1015.3 - 0.0
06/06:00am 2.9 -5.3 2.6 98 0.1 N 35 44 19 24 1015.4 1016.4 0.0
06/05:30am 2.7 -5.2 2.4 98 0.1 N 33 39 18 21 1015.6 - 0.0
06/05:00am 2.8 -4.9 2.5 98 0.1 N 32 39 17 21 1015.8 - 0.0
06/04:30am 2.9 -4.9 2.6 98 0.1 N 33 39 18 21 1015.9 - 0.0
06/04:00am 3.0 -5.2 2.6 97 0.2 N 35 41 19 22 1016.0 - 0.0
06/03:30am 3.1 -5.5 2.7 97 0.2 N 37 46 20 25 1016.2 - 0.0
06/03:00am 3.3 -5.3 2.7 96 0.2 N 37 44 20 24 1016.4 1017.5 0.0
06/02:30am 3.2 -5.4 2.8 97 0.2 N 37 44 20 24 1016.7 - 0.0
06/02:00am 3.1 -5.5 2.7 97 0.2 N 37 46 20 25 1016.7 - 0.0
06/01:30am 3.0 -5.6 2.7 98 0.1 N 37 44 20 24 1017.0 - 0.0
06/01:00am 3.2 -5.4 2.8 97 0.2 N 37 48 20 26 1017.2 - 0.0
06/12:30am 3.2 -5.4 2.6 96 0.2 N 37 46 20 25 1017.3 - 0.0
06/12:00am 3.4 -4.8 2.5 94 0.4 N 35 43 19 23 1017.6 1018.7 0.0
 
Date/Time
EST
Temp
°C
App
Temp
°C
Dew
Point
Rel
Hum
%
Delta-T
°C
Wind Press
QNH
hPa
Press
MSL
hPa
Rain
since 9 am
mm
Dir
 
Spd
km/h
Gust
km/h
Spd
kts
Gust
kts
05/11:30pm 3.5 -4.7 2.5 93 0.4 N 35 43 19 23 1017.7 - 0.0
05/11:00pm 3.8 -4.4 2.6 92 0.5 N 35 44 19 24 1017.7 - 0.0
05/10:30pm 3.9 -4.3 2.6 91 0.5 N 35 43 19 23 1017.7 - 0.0
05/10:00pm 4.0 -4.2 2.5 90 0.6 N 35 41 19 22 1017.9 - 0.0
05/09:30pm 4.3 -3.5 2.7 89 0.7 N 33 39 18 21 1018.0 - 0.0
05/09:00pm 4.4 -3.4 2.6 88 0.8 N 33 41 18 22 1017.9 1019.0 0.0
05/08:30pm 4.4 -2.9 2.4 87 0.8 N 30 35 16 19 1018.1 - 0.0
05/08:00pm 4.9 -2.7 2.6 85 1.0 N 32 37 17 20 1018.0 - 0.0
05/07:30pm 5.1 -2.2 2.6 84 1.1 N 30 35 16 19 1018.1 - 0.0
05/07:00pm 5.6 -2.0 2.8 82 1.2 N 32 37 17 20 1018.0 - 0.0
05/06:30pm 5.7 -1.5 3.0 83 1.2 N 30 37 16 20 1018.0 - 0.0
05/06:00pm 5.9 -0.9 3.1 82 1.2 N 28 33 15 18 1018.0 1019.1 0.0
05/05:30pm 6.4 -0.7 3.4 81 1.3 N 30 37 16 20 1017.9 - 0.0
05/05:00pm 7.4 0.6 3.3 75 1.8 N 28 39 15 21 1017.9 - 0.0
05/04:30pm 8.4 1.3 3.8 73 2.1 N 30 41 16 22 1017.9 - 0.0
05/04:00pm 8.4 1.4 4.0 74 2.0 N 30 39 16 21 1018.0 - 0.0
05/03:30pm 8.9 1.9 4.3 73 2.1 N 30 39 16 21 1018.0 - 0.0
05/03:00pm 9.3 2.4 4.5 72 2.2 N 30 41 16 22 1018.0 1019.1 0.0
05/02:30pm 9.4 1.9 4.6 72 2.2 N 33 43 18 23 1018.0 - 0.0
05/02:00pm 8.8 1.4 3.8 71 2.2 N 32 43 17 23 1018.1 - 0.0
05/01:30pm 7.9 0.6 4.3 78 1.6 N 32 43 17 23 1018.3 - 0.0
05/01:00pm 7.6 -0.5 3.5 75 1.8 N 35 43 19 23 1018.4 - 0.0
05/12:30pm 7.8 0.5 4.7 81 1.4 N 32 41 17 22 1018.9 - 0.0
05/12:00pm 7.6 0.2 4.2 79 1.5 N 32 41 17 22 1019.1 1020.2 0.0
05/11:30am 6.8 -1.2 3.6 80 1.4 N 35 41 19 22 1019.5 - 0.0
05/11:00am 6.6 -1.1 3.6 81 1.3 N 33 41 18 22 1020.0 - 0.0
05/10:30am 5.8 -1.9 3.3 84 1.1 N 33 39 18 21 1020.2 - 0.0
05/10:00am 5.2 -2.3 3.2 87 0.9 N 32 37 17 20 1020.3 - 0.0
05/09:30am 4.1 -3.5 2.9 92 0.5 N 32 39 17 21 1020.2 - 0.0
05/09:00am 3.4 -4.2 2.7 95 0.3 N 32 39 17 21 1020.2 1021.3 1.4
05/08:30am 3.0 -4.7 2.4 96 0.2 N 32 37 17 20 1020.2 - 1.4
05/08:00am 2.8 -4.9 2.1 95 0.3 N 32 39 17 21 1020.2 - 1.4
05/07:30am 3.2 -5.1 2.3 94 0.4 N 35 41 19 22 1020.0 - 1.4
05/07:00am 3.3 -4.4 2.4 94 0.4 N 32 39 17 21 1019.9 - 1.4
05/06:30am 3.6 -4.3 2.4 92 0.5 N 33 39 18 21 1019.9 - 1.4
05/06:00am 3.7 -4.1 2.7 93 0.4 N 33 39 18 21 1019.8 1020.9 1.4
05/05:30am 4.1 -3.7 2.6 90 0.6 N 33 41 18 22 1019.7 - 1.4
05/05:00am 4.3 -3.4 2.5 88 0.7 N 32 39 17 21 1019.8 - 1.4
05/04:30am 4.5 -2.8 2.5 87 0.8 N 30 35 16 19 1020.0 - 1.4
05/04:00am 4.3 -2.6 2.5 88 0.7 N 28 33 15 18 1019.9 - 1.4
05/03:30am 4.6 -1.9 2.8 88 0.8 N 26 33 14 18 1020.2 - 1.4
05/03:00am 4.7 -2.9 2.7 87 0.8 N 32 41 17 22 1020.1 1021.2 1.4
05/02:40am 4.7 -2.5 2.9 88 0.8 N 30 37 16 20 1020.4 - 1.4
05/02:30am 4.7 -2.5 2.9 88 0.8 N 30 35 16 19 1020.7 - 1.4
05/02:00am 4.8 -2.0 3.0 88 0.8 N 28 35 15 19 1020.8 - 1.4
05/01:30am 4.9 -1.9 3.1 88 0.8 N 28 33 15 18 1020.9 - 1.4
05/01:00am 5.0 -1.8 2.9 86 0.9 N 28 33 15 18 1021.0 - 1.4
05/12:30am 5.1 -1.3 3.0 86 0.9 N 26 33 14 18 1021.0 - 1.4
05/12:00am 5.2 -1.6 2.9 85 1.0 N 28 35 15 19 1021.1 1022.2 1.4
 
Date/Time
EST
Temp
°C
App
Temp
°C
Dew
Point
Rel
Hum
%
Delta-T
°C
Wind Press
QNH
hPa
Press
MSL
hPa
Rain
since 9 am
mm
Dir
 
Spd
km/h
Gust
km/h
Spd
kts
Gust
kts
04/11:30pm 5.4 -1.0 3.1 85 1.0 N 26 32 14 17 1021.3 - 1.4
04/11:00pm 5.4 -1.0 3.3 86 0.9 N 26 32 14 17 1021.4 - 1.4
04/10:30pm 5.5 -1.3 3.2 85 1.0 N 28 33 15 18 1021.5 - 1.4
04/10:00pm 5.7 -1.5 3.2 84 1.1 N 30 35 16 19 1021.4 - 1.4
04/09:30pm 5.5 -1.3 3.3 86 0.9 N 28 33 15 18 1021.6 - 1.4
04/09:00pm 5.6 -1.1 3.4 86 0.9 N 28 33 15 18 1021.7 1022.8 1.4
04/08:30pm 5.6 -0.8 3.3 85 1.0 N 26 32 14 17 1021.8 - 1.4
04/08:00pm 5.7 -0.3 3.4 85 1.0 N 24 30 13 16 1021.9 - 1.4
04/07:30pm 5.5 -1.2 3.5 87 0.9 N 28 32 15 17 1021.7 - 1.4

Other Formats:

Comma delimited format used in spreadsheet applications
http://www.bom.gov.au/fwo/IDV60801/IDV60801.94860.axf

JavaScript Object Notation format (JSON) in row-major order
http://www.bom.gov.au/fwo/IDV60801/IDV60801.94860.json